sensor_id;sensor_type;location;lat;lon;timestamp;P1;durP1;ratioP1;P2;durP2;ratioP2
65375;SDS011;51976;47.332;9.404;2023-01-16T00:01:47;1.25;;;0.60;;
65375;SDS011;51976;47.332;9.404;2023-01-16T00:04:13;1.20;;;0.70;;
65375;SDS011;51976;47.332;9.404;2023-01-16T00:06:38;1.15;;;0.68;;
65375;SDS011;51976;47.332;9.404;2023-01-16T00:09:05;1.20;;;0.73;;
65375;SDS011;51976;47.332;9.404;2023-01-16T00:11:31;1.67;;;0.77;;
65375;SDS011;51976;47.332;9.404;2023-01-16T00:13:57;0.80;;;0.45;;
65375;SDS011;51976;47.332;9.404;2023-01-16T00:16:23;1.10;;;0.45;;
65375;SDS011;51976;47.332;9.404;2023-01-16T00:18:49;1.20;;;0.70;;
65375;SDS011;51976;47.332;9.404;2023-01-16T00:21:15;0.95;;;0.63;;
65375;SDS011;51976;47.332;9.404;2023-01-16T00:23:40;1.13;;;0.50;;
65375;SDS011;51976;47.332;9.404;2023-01-16T00:26:06;0.77;;;0.47;;
65375;SDS011;51976;47.332;9.404;2023-01-16T00:28:33;1.40;;;0.75;;
65375;SDS011;51976;47.332;9.404;2023-01-16T00:30:58;0.88;;;0.50;;
65375;SDS011;51976;47.332;9.404;2023-01-16T00:33:24;1.05;;;0.57;;
65375;SDS011;51976;47.332;9.404;2023-01-16T00:35:50;1.23;;;0.60;;
65375;SDS011;51976;47.332;9.404;2023-01-16T00:38:16;1.17;;;0.60;;
65375;SDS011;51976;47.332;9.404;2023-01-16T00:40:41;0.90;;;0.50;;
65375;SDS011;51976;47.332;9.404;2023-01-16T00:43:06;0.82;;;0.55;;
65375;SDS011;51976;47.332;9.404;2023-01-16T00:45:32;1.50;;;0.63;;
65375;SDS011;51976;47.332;9.404;2023-01-16T00:47:57;1.27;;;0.50;;
65375;SDS011;51976;47.332;9.404;2023-01-16T00:50:23;0.70;;;0.40;;
65375;SDS011;51976;47.332;9.404;2023-01-16T00:52:49;1.30;;;0.77;;
65375;SDS011;51976;47.332;9.404;2023-01-16T00:55:15;0.60;;;0.43;;
65375;SDS011;51976;47.332;9.404;2023-01-16T00:57:40;1.05;;;0.52;;
65375;SDS011;51976;47.332;9.404;2023-01-16T01:00:06;0.70;;;0.35;;
65375;SDS011;51976;47.332;9.404;2023-01-16T01:02:31;1.20;;;0.65;;
65375;SDS011;51976;47.332;9.404;2023-01-16T01:04:57;1.30;;;0.43;;
65375;SDS011;51976;47.332;9.404;2023-01-16T01:07:22;0.95;;;0.52;;
65375;SDS011;51976;47.332;9.404;2023-01-16T01:09:48;0.90;;;0.43;;
65375;SDS011;51976;47.332;9.404;2023-01-16T01:12:13;1.25;;;0.50;;
65375;SDS011;51976;47.332;9.404;2023-01-16T01:14:39;1.17;;;0.57;;
65375;SDS011;51976;47.332;9.404;2023-01-16T01:17:04;1.00;;;0.52;;
65375;SDS011;51976;47.332;9.404;2023-01-16T01:19:29;0.60;;;0.40;;
65375;SDS011;51976;47.332;9.404;2023-01-16T01:21:55;0.73;;;0.50;;
65375;SDS011;51976;47.332;9.404;2023-01-16T01:24:21;1.27;;;0.60;;
65375;SDS011;51976;47.332;9.404;2023-01-16T01:26:46;1.17;;;0.45;;
65375;SDS011;51976;47.332;9.404;2023-01-16T01:29:11;0.80;;;0.40;;
65375;SDS011;51976;47.332;9.404;2023-01-16T01:31:37;0.50;;;0.40;;
65375;SDS011;51976;47.332;9.404;2023-01-16T01:34:02;0.70;;;0.40;;
65375;SDS011;51976;47.332;9.404;2023-01-16T01:36:27;0.60;;;0.30;;
65375;SDS011;51976;47.332;9.404;2023-01-16T01:38:53;3.40;;;0.98;;
65375;SDS011;51976;47.332;9.404;2023-01-16T01:41:18;0.73;;;0.40;;
65375;SDS011;51976;47.332;9.404;2023-01-16T01:43:45;0.80;;;0.50;;
65375;SDS011;51976;47.332;9.404;2023-01-16T01:46:17;0.80;;;0.40;;
65375;SDS011;51976;47.332;9.404;2023-01-16T01:48:46;0.93;;;0.40;;
65375;SDS011;51976;47.332;9.404;2023-01-16T01:51:14;0.75;;;0.40;;
65375;SDS011;51976;47.332;9.404;2023-01-16T01:56:22;2.17;;;0.32;;
65375;SDS011;51976;47.332;9.404;2023-01-16T01:58:54;0.82;;;0.40;;
65375;SDS011;51976;47.332;9.404;2023-01-16T02:01:23;0.52;;;0.30;;
65375;SDS011;51976;47.332;9.404;2023-01-16T02:04:00;0.63;;;0.30;;
65375;SDS011;51976;47.332;9.404;2023-01-16T02:06:31;0.70;;;0.32;;
65375;SDS011;51976;47.332;9.404;2023-01-16T02:09:05;0.80;;;0.40;;
65375;SDS011;51976;47.332;9.404;2023-01-16T02:11:38;0.40;;;0.20;;
65375;SDS011;51976;47.332;9.404;2023-01-16T02:14:08;0.68;;;0.28;;
65375;SDS011;51976;47.332;9.404;2023-01-16T02:16:37;1.13;;;0.43;;
65375;SDS011;51976;47.332;9.404;2023-01-16T02:19:30;0.70;;;0.30;;
65375;SDS011;51976;47.332;9.404;2023-01-16T02:22:09;0.40;;;0.30;;
65375;SDS011;51976;47.332;9.404;2023-01-16T02:28:04;0.45;;;0.30;;
65375;SDS011;51976;47.332;9.404;2023-01-16T02:31:02;0.20;;;0.10;;
65375;SDS011;51976;47.332;9.404;2023-01-16T02:33:56;0.80;;;0.30;;
65375;SDS011;51976;47.332;9.404;2023-01-16T02:36:40;0.45;;;0.30;;
65375;SDS011;51976;47.332;9.404;2023-01-16T02:39:43;0.55;;;0.32;;
65375;SDS011;51976;47.332;9.404;2023-01-16T02:42:17;0.65;;;0.30;;
65375;SDS011;51976;47.332;9.404;2023-01-16T02:44:59;0.47;;;0.30;;
65375;SDS011;51976;47.332;9.404;2023-01-16T02:48:08;0.45;;;0.30;;
65375;SDS011;51976;47.332;9.404;2023-01-16T02:50:46;0.38;;;0.15;;
65375;SDS011;51976;47.332;9.404;2023-01-16T02:53:21;0.47;;;0.20;;
65375;SDS011;51976;47.332;9.404;2023-01-16T02:55:54;0.52;;;0.22;;
65375;SDS011;51976;47.332;9.404;2023-01-16T02:58:22;0.60;;;0.20;;
65375;SDS011;51976;47.332;9.404;2023-01-16T03:00:53;0.30;;;0.17;;
65375;SDS011;51976;47.332;9.404;2023-01-16T03:03:38;0.70;;;0.30;;
65375;SDS011;51976;47.332;9.404;2023-01-16T03:06:37;0.65;;;0.30;;
65375;SDS011;51976;47.332;9.404;2023-01-16T03:09:21;0.70;;;0.40;;
65375;SDS011;51976;47.332;9.404;2023-01-16T03:12:46;0.77;;;0.35;;
65375;SDS011;51976;47.332;9.404;2023-01-16T03:15:26;0.55;;;0.30;;
65375;SDS011;51976;47.332;9.404;2023-01-16T03:18:08;0.52;;;0.30;;
65375;SDS011;51976;47.332;9.404;2023-01-16T03:21:10;0.43;;;0.20;;
65375;SDS011;51976;47.332;9.404;2023-01-16T03:23:38;0.93;;;0.30;;
65375;SDS011;51976;47.332;9.404;2023-01-16T03:26:42;0.50;;;0.20;;
65375;SDS011;51976;47.332;9.404;2023-01-16T03:29:10;0.30;;;0.10;;
65375;SDS011;51976;47.332;9.404;2023-01-16T03:31:47;1.48;;;0.30;;
65375;SDS011;51976;47.332;9.404;2023-01-16T03:34:30;0.60;;;0.20;;
65375;SDS011;51976;47.332;9.404;2023-01-16T03:37:19;0.47;;;0.25;;
65375;SDS011;51976;47.332;9.404;2023-01-16T03:39:54;0.80;;;0.30;;
65375;SDS011;51976;47.332;9.404;2023-01-16T03:42:25;0.30;;;0.20;;
65375;SDS011;51976;47.332;9.404;2023-01-16T03:45:02;0.40;;;0.20;;
65375;SDS011;51976;47.332;9.404;2023-01-16T03:47:36;0.40;;;0.20;;
65375;SDS011;51976;47.332;9.404;2023-01-16T03:50:11;0.68;;;0.20;;
65375;SDS011;51976;47.332;9.404;2023-01-16T03:52:39;0.30;;;0.20;;
65375;SDS011;51976;47.332;9.404;2023-01-16T03:55:13;0.45;;;0.28;;
65375;SDS011;51976;47.332;9.404;2023-01-16T03:57:49;0.20;;;0.10;;
65375;SDS011;51976;47.332;9.404;2023-01-16T04:00:18;0.52;;;0.20;;
65375;SDS011;51976;47.332;9.404;2023-01-16T04:02:46;0.47;;;0.38;;
65375;SDS011;51976;47.332;9.404;2023-01-16T04:05:19;0.20;;;0.10;;
65375;SDS011;51976;47.332;9.404;2023-01-16T04:07:57;0.40;;;0.30;;
65375;SDS011;51976;47.332;9.404;2023-01-16T04:10:30;0.30;;;0.10;;
65375;SDS011;51976;47.332;9.404;2023-01-16T04:13:00;0.40;;;0.20;;
65375;SDS011;51976;47.332;9.404;2023-01-16T04:15:30;0.52;;;0.30;;
65375;SDS011;51976;47.332;9.404;2023-01-16T04:17:58;0.40;;;0.20;;
65375;SDS011;51976;47.332;9.404;2023-01-16T04:20:24;0.30;;;0.20;;
65375;SDS011;51976;47.332;9.404;2023-01-16T04:22:52;0.32;;;0.30;;
65375;SDS011;51976;47.332;9.404;2023-01-16T04:25:17;0.57;;;0.22;;
65375;SDS011;51976;47.332;9.404;2023-01-16T04:27:44;0.40;;;0.20;;
65375;SDS011;51976;47.332;9.404;2023-01-16T04:30:09;0.35;;;0.20;;
65375;SDS011;51976;47.332;9.404;2023-01-16T04:32:35;0.65;;;0.20;;
65375;SDS011;51976;47.332;9.404;2023-01-16T04:35:01;0.40;;;0.20;;
65375;SDS011;51976;47.332;9.404;2023-01-16T04:37:27;0.80;;;0.40;;
65375;SDS011;51976;47.332;9.404;2023-01-16T04:39:53;0.73;;;0.20;;
65375;SDS011;51976;47.332;9.404;2023-01-16T04:42:18;0.17;;;0.10;;
65375;SDS011;51976;47.332;9.404;2023-01-16T04:44:44;0.85;;;0.28;;
65375;SDS011;51976;47.332;9.404;2023-01-16T04:47:10;0.20;;;0.10;;
65375;SDS011;51976;47.332;9.404;2023-01-16T04:49:35;0.40;;;0.20;;
65375;SDS011;51976;47.332;9.404;2023-01-16T04:52:01;0.43;;;0.30;;
65375;SDS011;51976;47.332;9.404;2023-01-16T04:54:26;0.32;;;0.17;;
65375;SDS011;51976;47.332;9.404;2023-01-16T04:56:52;0.47;;;0.30;;
65375;SDS011;51976;47.332;9.404;2023-01-16T04:59:17;0.20;;;0.15;;
65375;SDS011;51976;47.332;9.404;2023-01-16T05:01:43;0.40;;;0.20;;
65375;SDS011;51976;47.332;9.404;2023-01-16T05:04:09;0.25;;;0.10;;
65375;SDS011;51976;47.332;9.404;2023-01-16T05:06:37;0.30;;;0.28;;
65375;SDS011;51976;47.332;9.404;2023-01-16T05:09:03;0.35;;;0.20;;
65375;SDS011;51976;47.332;9.404;2023-01-16T05:11:30;0.47;;;0.28;;
65375;SDS011;51976;47.332;9.404;2023-01-16T05:13:55;0.50;;;0.30;;
65375;SDS011;51976;47.332;9.404;2023-01-16T05:16:21;0.43;;;0.30;;
65375;SDS011;51976;47.332;9.404;2023-01-16T05:18:46;1.63;;;0.40;;
65375;SDS011;51976;47.332;9.404;2023-01-16T05:21:12;0.70;;;0.30;;
65375;SDS011;51976;47.332;9.404;2023-01-16T05:23:37;1.20;;;0.60;;
65375;SDS011;51976;47.332;9.404;2023-01-16T05:26:03;0.85;;;0.43;;
65375;SDS011;51976;47.332;9.404;2023-01-16T05:28:29;0.55;;;0.40;;
65375;SDS011;51976;47.332;9.404;2023-01-16T05:30:56;0.70;;;0.40;;
65375;SDS011;51976;47.332;9.404;2023-01-16T05:33:21;0.93;;;0.43;;
65375;SDS011;51976;47.332;9.404;2023-01-16T05:35:47;0.50;;;0.30;;
65375;SDS011;51976;47.332;9.404;2023-01-16T05:38:13;0.68;;;0.40;;
65375;SDS011;51976;47.332;9.404;2023-01-16T05:40:39;0.75;;;0.45;;
65375;SDS011;51976;47.332;9.404;2023-01-16T05:43:05;1.05;;;0.60;;
65375;SDS011;51976;47.332;9.404;2023-01-16T05:45:30;0.80;;;0.50;;
65375;SDS011;51976;47.332;9.404;2023-01-16T05:47:56;0.57;;;0.40;;
65375;SDS011;51976;47.332;9.404;2023-01-16T05:50:22;0.98;;;0.50;;
65375;SDS011;51976;47.332;9.404;2023-01-16T05:52:48;0.77;;;0.50;;
65375;SDS011;51976;47.332;9.404;2023-01-16T05:55:13;1.17;;;0.57;;
65375;SDS011;51976;47.332;9.404;2023-01-16T05:57:39;1.58;;;0.70;;
65375;SDS011;51976;47.332;9.404;2023-01-16T06:00:04;1.10;;;0.60;;
65375;SDS011;51976;47.332;9.404;2023-01-16T06:02:30;0.70;;;0.47;;
65375;SDS011;51976;47.332;9.404;2023-01-16T06:04:56;1.33;;;0.60;;
65375;SDS011;51976;47.332;9.404;2023-01-16T06:07:22;0.90;;;0.50;;
65375;SDS011;51976;47.332;9.404;2023-01-16T06:09:47;0.80;;;0.40;;
65375;SDS011;51976;47.332;9.404;2023-01-16T06:12:14;1.25;;;0.70;;
65375;SDS011;51976;47.332;9.404;2023-01-16T06:14:41;1.15;;;0.57;;
65375;SDS011;51976;47.332;9.404;2023-01-16T06:17:06;1.05;;;0.50;;
65375;SDS011;51976;47.332;9.404;2023-01-16T06:19:31;1.27;;;0.60;;
65375;SDS011;51976;47.332;9.404;2023-01-16T06:21:57;0.60;;;0.40;;
65375;SDS011;51976;47.332;9.404;2023-01-16T06:24:22;0.80;;;0.50;;
65375;SDS011;51976;47.332;9.404;2023-01-16T06:26:47;1.20;;;0.63;;
65375;SDS011;51976;47.332;9.404;2023-01-16T06:29:13;1.30;;;0.68;;
65375;SDS011;51976;47.332;9.404;2023-01-16T06:31:38;0.90;;;0.60;;
65375;SDS011;51976;47.332;9.404;2023-01-16T06:34:04;1.33;;;0.70;;
65375;SDS011;51976;47.332;9.404;2023-01-16T06:36:29;1.55;;;0.90;;
65375;SDS011;51976;47.332;9.404;2023-01-16T06:38:55;0.93;;;0.60;;
65375;SDS011;51976;47.332;9.404;2023-01-16T06:41:20;0.60;;;0.40;;
65375;SDS011;51976;47.332;9.404;2023-01-16T06:43:46;0.80;;;0.60;;
65375;SDS011;51976;47.332;9.404;2023-01-16T06:46:11;1.58;;;0.80;;
65375;SDS011;51976;47.332;9.404;2023-01-16T06:48:37;1.13;;;0.70;;
65375;SDS011;51976;47.332;9.404;2023-01-16T06:51:02;1.08;;;0.77;;
65375;SDS011;51976;47.332;9.404;2023-01-16T06:53:28;1.25;;;0.63;;
65375;SDS011;51976;47.332;9.404;2023-01-16T06:55:53;0.73;;;0.50;;
65375;SDS011;51976;47.332;9.404;2023-01-16T06:58:18;1.48;;;0.73;;
65375;SDS011;51976;47.332;9.404;2023-01-16T07:00:44;1.52;;;0.70;;
65375;SDS011;51976;47.332;9.404;2023-01-16T07:03:09;1.08;;;0.80;;
65375;SDS011;51976;47.332;9.404;2023-01-16T07:05:36;1.88;;;0.90;;
65375;SDS011;51976;47.332;9.404;2023-01-16T07:08:01;2.08;;;0.90;;
65375;SDS011;51976;47.332;9.404;2023-01-16T07:10:27;2.13;;;1.10;;
65375;SDS011;51976;47.332;9.404;2023-01-16T07:12:53;2.30;;;1.20;;
65375;SDS011;51976;47.332;9.404;2023-01-16T07:15:19;2.13;;;1.27;;
65375;SDS011;51976;47.332;9.404;2023-01-16T07:18:05;2.75;;;1.23;;
65375;SDS011;51976;47.332;9.404;2023-01-16T07:20:58;3.10;;;1.42;;
65375;SDS011;51976;47.332;9.404;2023-01-16T07:23:47;2.70;;;1.30;;
65375;SDS011;51976;47.332;9.404;2023-01-16T07:26:17;2.63;;;1.50;;
65375;SDS011;51976;47.332;9.404;2023-01-16T07:28:45;2.50;;;1.10;;
65375;SDS011;51976;47.332;9.404;2023-01-16T07:31:13;3.00;;;1.52;;
65375;SDS011;51976;47.332;9.404;2023-01-16T07:33:38;2.97;;;1.50;;
65375;SDS011;51976;47.332;9.404;2023-01-16T07:36:04;2.28;;;1.00;;
65375;SDS011;51976;47.332;9.404;2023-01-16T07:38:29;3.03;;;1.40;;
65375;SDS011;51976;47.332;9.404;2023-01-16T07:40:55;2.72;;;1.48;;
65375;SDS011;51976;47.332;9.404;2023-01-16T07:43:21;3.22;;;1.40;;
65375;SDS011;51976;47.332;9.404;2023-01-16T07:45:46;2.47;;;1.25;;
65375;SDS011;51976;47.332;9.404;2023-01-16T07:48:17;2.53;;;1.17;;
65375;SDS011;51976;47.332;9.404;2023-01-16T07:50:49;3.50;;;1.30;;
65375;SDS011;51976;47.332;9.404;2023-01-16T07:53:16;2.15;;;1.10;;
65375;SDS011;51976;47.332;9.404;2023-01-16T07:55:46;2.28;;;1.40;;
65375;SDS011;51976;47.332;9.404;2023-01-16T07:58:11;3.10;;;1.65;;
65375;SDS011;51976;47.332;9.404;2023-01-16T08:00:37;2.28;;;1.35;;
65375;SDS011;51976;47.332;9.404;2023-01-16T08:03:02;2.50;;;1.10;;
65375;SDS011;51976;47.332;9.404;2023-01-16T08:05:28;2.25;;;1.27;;
65375;SDS011;51976;47.332;9.404;2023-01-16T08:07:53;1.65;;;0.98;;
65375;SDS011;51976;47.332;9.404;2023-01-16T08:10:19;3.15;;;1.60;;
65375;SDS011;51976;47.332;9.404;2023-01-16T08:12:45;2.58;;;1.38;;
65375;SDS011;51976;47.332;9.404;2023-01-16T08:15:10;3.10;;;1.40;;
65375;SDS011;51976;47.332;9.404;2023-01-16T08:17:37;2.65;;;1.35;;
65375;SDS011;51976;47.332;9.404;2023-01-16T08:20:04;2.67;;;1.40;;
65375;SDS011;51976;47.332;9.404;2023-01-16T08:22:30;2.90;;;1.42;;
65375;SDS011;51976;47.332;9.404;2023-01-16T08:24:55;2.38;;;1.00;;
65375;SDS011;51976;47.332;9.404;2023-01-16T08:27:21;1.75;;;1.23;;
65375;SDS011;51976;47.332;9.404;2023-01-16T08:29:46;2.40;;;1.48;;
65375;SDS011;51976;47.332;9.404;2023-01-16T08:32:12;2.40;;;1.30;;
65375;SDS011;51976;47.332;9.404;2023-01-16T08:34:37;2.17;;;1.23;;
65375;SDS011;51976;47.332;9.404;2023-01-16T08:37:02;3.00;;;1.42;;
65375;SDS011;51976;47.332;9.404;2023-01-16T08:39:29;2.10;;;1.20;;
65375;SDS011;51976;47.332;9.404;2023-01-16T08:41:54;2.17;;;1.05;;
65375;SDS011;51976;47.332;9.404;2023-01-16T08:44:40;1.67;;;1.05;;
65375;SDS011;51976;47.332;9.404;2023-01-16T08:47:25;2.42;;;1.40;;
65375;SDS011;51976;47.332;9.404;2023-01-16T08:50:11;3.13;;;1.42;;
65375;SDS011;51976;47.332;9.404;2023-01-16T08:52:59;1.85;;;1.25;;
65375;SDS011;51976;47.332;9.404;2023-01-16T08:55:24;2.45;;;1.38;;
65375;SDS011;51976;47.332;9.404;2023-01-16T08:57:50;2.05;;;1.17;;
65375;SDS011;51976;47.332;9.404;2023-01-16T09:00:15;1.88;;;1.20;;
65375;SDS011;51976;47.332;9.404;2023-01-16T09:02:43;2.10;;;1.20;;
65375;SDS011;51976;47.332;9.404;2023-01-16T09:05:11;3.67;;;1.50;;
65375;SDS011;51976;47.332;9.404;2023-01-16T09:07:38;2.85;;;1.40;;
65375;SDS011;51976;47.332;9.404;2023-01-16T09:10:04;2.22;;;1.30;;
65375;SDS011;51976;47.332;9.404;2023-01-16T09:12:30;2.38;;;1.30;;
65375;SDS011;51976;47.332;9.404;2023-01-16T09:15:16;2.22;;;1.05;;
65375;SDS011;51976;47.332;9.404;2023-01-16T09:17:41;1.88;;;0.80;;
65375;SDS011;51976;47.332;9.404;2023-01-16T09:20:07;1.35;;;0.90;;
65375;SDS011;51976;47.332;9.404;2023-01-16T09:22:33;2.58;;;1.20;;
65375;SDS011;51976;47.332;9.404;2023-01-16T09:24:58;1.90;;;1.25;;
65375;SDS011;51976;47.332;9.404;2023-01-16T09:27:24;1.63;;;1.15;;
65375;SDS011;51976;47.332;9.404;2023-01-16T09:29:49;3.05;;;1.20;;
65375;SDS011;51976;47.332;9.404;2023-01-16T09:32:15;1.90;;;1.20;;
65375;SDS011;51976;47.332;9.404;2023-01-16T09:34:42;1.73;;;1.10;;
65375;SDS011;51976;47.332;9.404;2023-01-16T09:37:07;2.15;;;1.10;;
65375;SDS011;51976;47.332;9.404;2023-01-16T09:39:34;1.35;;;0.82;;
65375;SDS011;51976;47.332;9.404;2023-01-16T09:42:26;2.45;;;1.10;;
65375;SDS011;51976;47.332;9.404;2023-01-16T09:45:26;1.77;;;1.00;;
65375;SDS011;51976;47.332;9.404;2023-01-16T09:47:58;1.80;;;1.00;;
65375;SDS011;51976;47.332;9.404;2023-01-16T09:50:29;2.35;;;0.85;;
65375;SDS011;51976;47.332;9.404;2023-01-16T09:53:05;1.88;;;1.10;;
65375;SDS011;51976;47.332;9.404;2023-01-16T09:55:58;2.10;;;1.15;;
65375;SDS011;51976;47.332;9.404;2023-01-16T09:58:52;1.83;;;1.00;;
65375;SDS011;51976;47.332;9.404;2023-01-16T10:01:27;1.75;;;1.08;;
65375;SDS011;51976;47.332;9.404;2023-01-16T10:04:05;1.98;;;1.02;;
65375;SDS011;51976;47.332;9.404;2023-01-16T10:06:44;1.35;;;0.82;;
65375;SDS011;51976;47.332;9.404;2023-01-16T10:09:38;2.17;;;1.05;;
65375;SDS011;51976;47.332;9.404;2023-01-16T10:12:34;2.45;;;1.17;;
65375;SDS011;51976;47.332;9.404;2023-01-16T10:15:17;2.17;;;1.08;;
65375;SDS011;51976;47.332;9.404;2023-01-16T10:18:14;1.73;;;0.82;;
65375;SDS011;51976;47.332;9.404;2023-01-16T10:21:13;1.23;;;0.80;;
65375;SDS011;51976;47.332;9.404;2023-01-16T10:24:02;1.83;;;1.13;;
65375;SDS011;51976;47.332;9.404;2023-01-16T10:26:46;1.80;;;0.95;;
65375;SDS011;51976;47.332;9.404;2023-01-16T10:29:27;1.92;;;1.00;;
65375;SDS011;51976;47.332;9.404;2023-01-16T10:34:31;2.95;;;1.02;;
65375;SDS011;51976;47.332;9.404;2023-01-16T10:37:03;1.23;;;0.68;;
65375;SDS011;51976;47.332;9.404;2023-01-16T10:39:32;1.83;;;0.82;;
65375;SDS011;51976;47.332;9.404;2023-01-16T10:42:08;1.88;;;0.98;;
65375;SDS011;51976;47.332;9.404;2023-01-16T10:45:09;1.83;;;1.00;;
65375;SDS011;51976;47.332;9.404;2023-01-16T10:47:58;1.40;;;0.80;;
65375;SDS011;51976;47.332;9.404;2023-01-16T10:50:43;2.50;;;0.85;;
65375;SDS011;51976;47.332;9.404;2023-01-16T10:53:10;0.98;;;0.60;;
65375;SDS011;51976;47.332;9.404;2023-01-16T10:55:38;1.80;;;0.88;;
65375;SDS011;51976;47.332;9.404;2023-01-16T10:58:16;1.73;;;0.88;;
65375;SDS011;51976;47.332;9.404;2023-01-16T11:00:58;1.58;;;1.00;;
65375;SDS011;51976;47.332;9.404;2023-01-16T11:03:36;1.58;;;0.90;;
65375;SDS011;51976;47.332;9.404;2023-01-16T11:06:10;1.65;;;0.90;;
65375;SDS011;51976;47.332;9.404;2023-01-16T11:08:40;1.65;;;0.85;;
65375;SDS011;51976;47.332;9.404;2023-01-16T11:11:07;1.40;;;0.80;;
65375;SDS011;51976;47.332;9.404;2023-01-16T11:13:55;1.52;;;1.00;;
65375;SDS011;51976;47.332;9.404;2023-01-16T11:19:26;1.58;;;0.88;;
65375;SDS011;51976;47.332;9.404;2023-01-16T11:21:56;1.58;;;1.05;;
65375;SDS011;51976;47.332;9.404;2023-01-16T11:24:30;1.30;;;0.85;;
65375;SDS011;51976;47.332;9.404;2023-01-16T11:26:59;1.50;;;0.85;;
65375;SDS011;51976;47.332;9.404;2023-01-16T11:29:26;3.17;;;0.73;;
65375;SDS011;51976;47.332;9.404;2023-01-16T11:31:58;1.63;;;0.93;;
65375;SDS011;51976;47.332;9.404;2023-01-16T11:34:27;1.80;;;0.93;;
65375;SDS011;51976;47.332;9.404;2023-01-16T11:36:54;1.52;;;0.95;;
65375;SDS011;51976;47.332;9.404;2023-01-16T11:39:25;2.10;;;1.10;;
65375;SDS011;51976;47.332;9.404;2023-01-16T11:41:54;1.20;;;0.73;;
65375;SDS011;51976;47.332;9.404;2023-01-16T11:44:23;1.48;;;0.95;;
65375;SDS011;51976;47.332;9.404;2023-01-16T11:47:14;1.58;;;0.63;;
65375;SDS011;51976;47.332;9.404;2023-01-16T11:49:45;1.80;;;1.20;;
65375;SDS011;51976;47.332;9.404;2023-01-16T11:52:16;1.20;;;0.77;;
65375;SDS011;51976;47.332;9.404;2023-01-16T11:54:55;1.50;;;0.82;;
65375;SDS011;51976;47.332;9.404;2023-01-16T11:57:33;1.83;;;0.73;;
65375;SDS011;51976;47.332;9.404;2023-01-16T12:00:23;1.55;;;0.85;;
65375;SDS011;51976;47.332;9.404;2023-01-16T12:03:02;2.33;;;1.00;;
65375;SDS011;51976;47.332;9.404;2023-01-16T12:05:59;1.73;;;0.73;;
65375;SDS011;51976;47.332;9.404;2023-01-16T12:08:58;1.38;;;0.80;;
65375;SDS011;51976;47.332;9.404;2023-01-16T12:11:42;1.20;;;0.70;;
65375;SDS011;51976;47.332;9.404;2023-01-16T12:14:42;2.58;;;0.90;;
65375;SDS011;51976;47.332;9.404;2023-01-16T12:17:15;1.23;;;0.75;;
65375;SDS011;51976;47.332;9.404;2023-01-16T12:20:11;1.23;;;0.80;;
65375;SDS011;51976;47.332;9.404;2023-01-16T12:22:48;1.27;;;0.77;;
65375;SDS011;51976;47.332;9.404;2023-01-16T12:25:43;1.42;;;0.82;;
65375;SDS011;51976;47.332;9.404;2023-01-16T12:31:33;1.85;;;1.00;;
65375;SDS011;51976;47.332;9.404;2023-01-16T12:35:03;1.48;;;0.70;;
65375;SDS011;51976;47.332;9.404;2023-01-16T12:37:23;1.25;;;0.60;;
65375;SDS011;51976;47.332;9.404;2023-01-16T12:40:18;2.20;;;0.85;;
65375;SDS011;51976;47.332;9.404;2023-01-16T12:43:02;1.90;;;1.05;;
65375;SDS011;51976;47.332;9.404;2023-01-16T12:45:48;1.88;;;0.88;;
65375;SDS011;51976;47.332;9.404;2023-01-16T12:51:14;1.80;;;0.90;;
65375;SDS011;51976;47.332;9.404;2023-01-16T12:57:18;1.50;;;0.75;;
65375;SDS011;51976;47.332;9.404;2023-01-16T13:00:10;1.85;;;1.05;;
65375;SDS011;51976;47.332;9.404;2023-01-16T13:02:41;2.28;;;0.90;;
65375;SDS011;51976;47.332;9.404;2023-01-16T13:05:19;1.45;;;0.57;;
65375;SDS011;51976;47.332;9.404;2023-01-16T13:07:56;1.05;;;0.65;;
65375;SDS011;51976;47.332;9.404;2023-01-16T13:10:33;1.42;;;0.70;;
65375;SDS011;51976;47.332;9.404;2023-01-16T13:13:23;1.70;;;0.95;;
65375;SDS011;51976;47.332;9.404;2023-01-16T13:15:54;1.95;;;0.90;;
65375;SDS011;51976;47.332;9.404;2023-01-16T13:18:46;1.38;;;0.80;;
65375;SDS011;51976;47.332;9.404;2023-01-16T13:21:17;1.80;;;0.80;;
65375;SDS011;51976;47.332;9.404;2023-01-16T13:23:47;1.15;;;0.60;;
65375;SDS011;51976;47.332;9.404;2023-01-16T13:26:17;1.88;;;0.93;;
65375;SDS011;51976;47.332;9.404;2023-01-16T13:28:51;1.73;;;0.63;;
65375;SDS011;51976;47.332;9.404;2023-01-16T13:31:24;2.15;;;1.00;;
65375;SDS011;51976;47.332;9.404;2023-01-16T13:33:56;1.48;;;0.75;;
65375;SDS011;51976;47.332;9.404;2023-01-16T13:36:54;1.05;;;0.60;;
65375;SDS011;51976;47.332;9.404;2023-01-16T13:39:39;1.60;;;0.80;;
65375;SDS011;51976;47.332;9.404;2023-01-16T13:42:30;1.27;;;0.68;;
65375;SDS011;51976;47.332;9.404;2023-01-16T13:45:00;2.03;;;0.73;;
65375;SDS011;51976;47.332;9.404;2023-01-16T13:47:50;0.95;;;0.50;;
65375;SDS011;51976;47.332;9.404;2023-01-16T13:50:24;1.25;;;0.77;;
65375;SDS011;51976;47.332;9.404;2023-01-16T13:52:55;1.13;;;0.55;;
65375;SDS011;51976;47.332;9.404;2023-01-16T13:55:27;1.65;;;0.82;;
65375;SDS011;51976;47.332;9.404;2023-01-16T13:57:55;1.52;;;0.73;;
65375;SDS011;51976;47.332;9.404;2023-01-16T14:00:31;1.08;;;0.68;;
65375;SDS011;51976;47.332;9.404;2023-01-16T14:03:02;1.70;;;0.70;;
65375;SDS011;51976;47.332;9.404;2023-01-16T14:05:51;1.42;;;0.70;;
65375;SDS011;51976;47.332;9.404;2023-01-16T14:08:24;1.42;;;0.80;;
65375;SDS011;51976;47.332;9.404;2023-01-16T14:11:15;1.67;;;0.70;;
65375;SDS011;51976;47.332;9.404;2023-01-16T14:13:48;1.40;;;0.80;;
65375;SDS011;51976;47.332;9.404;2023-01-16T14:21:46;1.25;;;0.73;;
65375;SDS011;51976;47.332;9.404;2023-01-16T14:24:38;1.33;;;0.70;;
65375;SDS011;51976;47.332;9.404;2023-01-16T14:27:11;1.30;;;0.90;;
65375;SDS011;51976;47.332;9.404;2023-01-16T14:29:44;1.02;;;0.63;;
65375;SDS011;51976;47.332;9.404;2023-01-16T14:32:16;0.95;;;0.65;;
65375;SDS011;51976;47.332;9.404;2023-01-16T14:34:48;1.13;;;0.55;;
65375;SDS011;51976;47.332;9.404;2023-01-16T14:37:22;1.03;;;0.70;;
65375;SDS011;51976;47.332;9.404;2023-01-16T14:40:16;1.27;;;0.77;;
65375;SDS011;51976;47.332;9.404;2023-01-16T14:42:46;0.85;;;0.68;;
65375;SDS011;51976;47.332;9.404;2023-01-16T14:45:34;1.45;;;0.75;;
65375;SDS011;51976;47.332;9.404;2023-01-16T14:51:29;2.42;;;0.80;;
65375;SDS011;51976;47.332;9.404;2023-01-16T14:54:33;2.60;;;1.00;;
65375;SDS011;51976;47.332;9.404;2023-01-16T14:57:23;1.90;;;0.80;;
65375;SDS011;51976;47.332;9.404;2023-01-16T15:02:46;2.15;;;0.77;;
65375;SDS011;51976;47.332;9.404;2023-01-16T15:05:23;1.73;;;0.85;;
65375;SDS011;51976;47.332;9.404;2023-01-16T15:08:15;2.42;;;1.20;;
65375;SDS011;51976;47.332;9.404;2023-01-16T15:10:45;4.53;;;1.10;;
65375;SDS011;51976;47.332;9.404;2023-01-16T15:13:15;2.83;;;1.10;;
65375;SDS011;51976;47.332;9.404;2023-01-16T15:15:53;4.93;;;1.25;;
65375;SDS011;51976;47.332;9.404;2023-01-16T15:18:25;5.57;;;1.20;;
65375;SDS011;51976;47.332;9.404;2023-01-16T15:21:11;2.80;;;1.17;;
65375;SDS011;51976;47.332;9.404;2023-01-16T15:23:59;3.63;;;1.33;;
65375;SDS011;51976;47.332;9.404;2023-01-16T15:26:46;2.72;;;1.02;;
65375;SDS011;51976;47.332;9.404;2023-01-16T15:29:34;1.90;;;0.90;;
65375;SDS011;51976;47.332;9.404;2023-01-16T15:32:11;3.00;;;1.10;;
65375;SDS011;51976;47.332;9.404;2023-01-16T15:34:46;2.95;;;1.27;;
65375;SDS011;51976;47.332;9.404;2023-01-16T15:37:19;4.13;;;1.05;;
65375;SDS011;51976;47.332;9.404;2023-01-16T15:39:47;1.55;;;0.77;;
65375;SDS011;51976;47.332;9.404;2023-01-16T15:42:18;2.25;;;1.00;;
65375;SDS011;51976;47.332;9.404;2023-01-16T15:45:14;3.97;;;0.90;;
65375;SDS011;51976;47.332;9.404;2023-01-16T15:51:09;2.40;;;0.97;;
65375;SDS011;51976;47.332;9.404;2023-01-16T15:53:43;2.97;;;0.77;;
65375;SDS011;51976;47.332;9.404;2023-01-16T15:56:16;2.28;;;0.88;;
65375;SDS011;51976;47.332;9.404;2023-01-16T15:58:46;4.53;;;0.90;;
65375;SDS011;51976;47.332;9.404;2023-01-16T16:01:13;2.42;;;0.80;;